sensor_id;sensor_type;location;lat;lon;timestamp;P1;durP1;ratioP1;P2;durP2;ratioP2
59476;SDS011;73078;49.762;6.594;2024-02-28T00:00:46;51.75;;;23.05;;
59476;SDS011;73078;49.762;6.594;2024-02-28T00:03:12;49.75;;;22.98;;
59476;SDS011;73078;49.762;6.594;2024-02-28T00:05:38;48.80;;;23.48;;
59476;SDS011;73078;49.762;6.594;2024-02-28T00:08:04;46.55;;;22.60;;
59476;SDS011;73078;49.762;6.594;2024-02-28T00:10:31;50.13;;;22.60;;
59476;SDS011;73078;49.762;6.594;2024-02-28T00:12:58;60.78;;;22.88;;
59476;SDS011;73078;49.762;6.594;2024-02-28T00:15:24;50.70;;;23.00;;
59476;SDS011;73078;49.762;6.594;2024-02-28T00:17:54;55.00;;;24.13;;
59476;SDS011;73078;49.762;6.594;2024-02-28T00:20:20;50.33;;;23.52;;
59476;SDS011;73078;49.762;6.594;2024-02-28T00:22:46;47.22;;;20.35;;
59476;SDS011;73078;49.762;6.594;2024-02-28T00:25:12;40.85;;;19.70;;
59476;SDS011;73078;49.762;6.594;2024-02-28T00:27:38;48.40;;;21.85;;
59476;SDS011;73078;49.762;6.594;2024-02-28T00:30:04;47.13;;;21.85;;
59476;SDS011;73078;49.762;6.594;2024-02-28T00:32:31;45.80;;;23.00;;
59476;SDS011;73078;49.762;6.594;2024-02-28T00:34:57;51.20;;;23.70;;
59476;SDS011;73078;49.762;6.594;2024-02-28T00:37:23;47.72;;;22.80;;
59476;SDS011;73078;49.762;6.594;2024-02-28T00:39:50;50.92;;;22.75;;
59476;SDS011;73078;49.762;6.594;2024-02-28T00:42:16;50.28;;;23.92;;
59476;SDS011;73078;49.762;6.594;2024-02-28T00:44:42;52.90;;;22.05;;
59476;SDS011;73078;49.762;6.594;2024-02-28T00:47:09;48.95;;;21.45;;
59476;SDS011;73078;49.762;6.594;2024-02-28T00:49:35;53.17;;;22.15;;
59476;SDS011;73078;49.762;6.594;2024-02-28T00:52:01;46.88;;;21.80;;
59476;SDS011;73078;49.762;6.594;2024-02-28T00:54:27;49.65;;;22.33;;
59476;SDS011;73078;49.762;6.594;2024-02-28T00:56:53;50.35;;;23.05;;
59476;SDS011;73078;49.762;6.594;2024-02-28T00:59:19;48.92;;;22.60;;
59476;SDS011;73078;49.762;6.594;2024-02-28T01:01:44;50.30;;;22.75;;
59476;SDS011;73078;49.762;6.594;2024-02-28T01:04:10;51.92;;;23.52;;
59476;SDS011;73078;49.762;6.594;2024-02-28T01:06:37;54.88;;;23.30;;
59476;SDS011;73078;49.762;6.594;2024-02-28T01:09:03;51.38;;;22.25;;
59476;SDS011;73078;49.762;6.594;2024-02-28T01:11:30;51.10;;;21.95;;
59476;SDS011;73078;49.762;6.594;2024-02-28T01:13:56;53.35;;;23.90;;
59476;SDS011;73078;49.762;6.594;2024-02-28T01:16:21;49.65;;;22.35;;
59476;SDS011;73078;49.762;6.594;2024-02-28T01:18:47;50.40;;;23.48;;
59476;SDS011;73078;49.762;6.594;2024-02-28T01:21:13;51.17;;;22.88;;
59476;SDS011;73078;49.762;6.594;2024-02-28T01:23:39;53.80;;;24.33;;
59476;SDS011;73078;49.762;6.594;2024-02-28T01:26:05;52.15;;;23.25;;
59476;SDS011;73078;49.762;6.594;2024-02-28T01:28:31;50.20;;;22.83;;
59476;SDS011;73078;49.762;6.594;2024-02-28T01:30:58;56.10;;;23.17;;
59476;SDS011;73078;49.762;6.594;2024-02-28T01:33:25;53.25;;;21.90;;
59476;SDS011;73078;49.762;6.594;2024-02-28T01:35:51;53.60;;;23.35;;
59476;SDS011;73078;49.762;6.594;2024-02-28T01:38:17;54.25;;;24.63;;
59476;SDS011;73078;49.762;6.594;2024-02-28T01:40:46;54.40;;;22.92;;
59476;SDS011;73078;49.762;6.594;2024-02-28T01:43:12;50.92;;;22.88;;
59476;SDS011;73078;49.762;6.594;2024-02-28T01:45:38;50.33;;;22.05;;
59476;SDS011;73078;49.762;6.594;2024-02-28T01:48:05;53.90;;;23.75;;
59476;SDS011;73078;49.762;6.594;2024-02-28T01:50:32;50.85;;;24.00;;
59476;SDS011;73078;49.762;6.594;2024-02-28T01:52:59;53.70;;;24.50;;
59476;SDS011;73078;49.762;6.594;2024-02-28T01:55:25;48.90;;;22.88;;
59476;SDS011;73078;49.762;6.594;2024-02-28T01:57:52;54.67;;;23.73;;
59476;SDS011;73078;49.762;6.594;2024-02-28T02:00:18;55.13;;;24.20;;
59476;SDS011;73078;49.762;6.594;2024-02-28T02:02:45;57.38;;;25.75;;
59476;SDS011;73078;49.762;6.594;2024-02-28T02:05:11;53.10;;;22.13;;
59476;SDS011;73078;49.762;6.594;2024-02-28T02:07:37;54.80;;;22.45;;
59476;SDS011;73078;49.762;6.594;2024-02-28T02:10:04;52.13;;;22.73;;
59476;SDS011;73078;49.762;6.594;2024-02-28T02:12:33;55.70;;;22.85;;
59476;SDS011;73078;49.762;6.594;2024-02-28T02:14:59;54.90;;;22.70;;
59476;SDS011;73078;49.762;6.594;2024-02-28T02:17:25;53.33;;;24.17;;
59476;SDS011;73078;49.762;6.594;2024-02-28T02:19:51;52.25;;;22.70;;
59476;SDS011;73078;49.762;6.594;2024-02-28T02:22:17;53.92;;;24.00;;
59476;SDS011;73078;49.762;6.594;2024-02-28T02:24:44;51.85;;;24.33;;
59476;SDS011;73078;49.762;6.594;2024-02-28T02:27:10;60.95;;;24.13;;
59476;SDS011;73078;49.762;6.594;2024-02-28T02:29:37;59.35;;;23.88;;
59476;SDS011;73078;49.762;6.594;2024-02-28T02:32:03;49.78;;;19.77;;
59476;SDS011;73078;49.762;6.594;2024-02-28T02:34:29;54.80;;;23.50;;
59476;SDS011;73078;49.762;6.594;2024-02-28T02:36:55;58.58;;;24.17;;
59476;SDS011;73078;49.762;6.594;2024-02-28T02:39:21;54.17;;;22.55;;
59476;SDS011;73078;49.762;6.594;2024-02-28T02:41:47;51.80;;;22.02;;
59476;SDS011;73078;49.762;6.594;2024-02-28T02:44:13;60.88;;;23.65;;
59476;SDS011;73078;49.762;6.594;2024-02-28T02:46:39;54.38;;;22.95;;
59476;SDS011;73078;49.762;6.594;2024-02-28T02:49:05;49.30;;;22.02;;
59476;SDS011;73078;49.762;6.594;2024-02-28T02:51:31;57.70;;;23.08;;
59476;SDS011;73078;49.762;6.594;2024-02-28T02:53:57;50.20;;;21.60;;
59476;SDS011;73078;49.762;6.594;2024-02-28T02:56:23;57.65;;;23.30;;
59476;SDS011;73078;49.762;6.594;2024-02-28T02:58:49;57.55;;;23.77;;
59476;SDS011;73078;49.762;6.594;2024-02-28T03:01:15;51.50;;;21.73;;
59476;SDS011;73078;49.762;6.594;2024-02-28T03:03:41;50.80;;;21.92;;
59476;SDS011;73078;49.762;6.594;2024-02-28T03:06:07;53.97;;;21.63;;
59476;SDS011;73078;49.762;6.594;2024-02-28T03:08:35;52.85;;;20.65;;
59476;SDS011;73078;49.762;6.594;2024-02-28T03:11:01;52.90;;;21.90;;
59476;SDS011;73078;49.762;6.594;2024-02-28T03:13:29;58.83;;;22.05;;
59476;SDS011;73078;49.762;6.594;2024-02-28T03:15:55;51.92;;;19.92;;
59476;SDS011;73078;49.762;6.594;2024-02-28T03:18:21;50.97;;;21.27;;
59476;SDS011;73078;49.762;6.594;2024-02-28T03:20:47;55.05;;;20.63;;
59476;SDS011;73078;49.762;6.594;2024-02-28T03:23:13;57.60;;;22.95;;
59476;SDS011;73078;49.762;6.594;2024-02-28T03:25:39;51.95;;;20.33;;
59476;SDS011;73078;49.762;6.594;2024-02-28T03:28:05;56.17;;;20.88;;
59476;SDS011;73078;49.762;6.594;2024-02-28T03:30:31;56.80;;;21.00;;
59476;SDS011;73078;49.762;6.594;2024-02-28T03:32:57;53.70;;;20.45;;
59476;SDS011;73078;49.762;6.594;2024-02-28T03:35:23;55.08;;;21.35;;
59476;SDS011;73078;49.762;6.594;2024-02-28T03:37:49;55.53;;;21.70;;
59476;SDS011;73078;49.762;6.594;2024-02-28T03:40:15;49.80;;;20.15;;
59476;SDS011;73078;49.762;6.594;2024-02-28T03:42:41;53.33;;;21.70;;
59476;SDS011;73078;49.762;6.594;2024-02-28T03:45:06;57.47;;;22.52;;
59476;SDS011;73078;49.762;6.594;2024-02-28T03:47:32;53.25;;;21.33;;
59476;SDS011;73078;49.762;6.594;2024-02-28T03:49:58;53.35;;;20.33;;
59476;SDS011;73078;49.762;6.594;2024-02-28T03:52:27;46.00;;;19.33;;
59476;SDS011;73078;49.762;6.594;2024-02-28T03:54:54;50.25;;;20.40;;
59476;SDS011;73078;49.762;6.594;2024-02-28T03:57:20;65.20;;;22.35;;
59476;SDS011;73078;49.762;6.594;2024-02-28T03:59:46;50.97;;;22.10;;
59476;SDS011;73078;49.762;6.594;2024-02-28T04:02:12;56.55;;;22.77;;
59476;SDS011;73078;49.762;6.594;2024-02-28T04:04:38;50.45;;;20.83;;
59476;SDS011;73078;49.762;6.594;2024-02-28T04:07:04;54.35;;;21.80;;
59476;SDS011;73078;49.762;6.594;2024-02-28T04:09:30;51.30;;;20.40;;
59476;SDS011;73078;49.762;6.594;2024-02-28T04:11:56;49.95;;;18.63;;
59476;SDS011;73078;49.762;6.594;2024-02-28T04:14:22;41.97;;;18.88;;
59476;SDS011;73078;49.762;6.594;2024-02-28T04:16:48;48.85;;;19.27;;
59476;SDS011;73078;49.762;6.594;2024-02-28T04:19:15;55.45;;;20.15;;
59476;SDS011;73078;49.762;6.594;2024-02-28T04:21:41;52.65;;;19.90;;
59476;SDS011;73078;49.762;6.594;2024-02-28T04:24:07;58.45;;;21.10;;
59476;SDS011;73078;49.762;6.594;2024-02-28T04:26:34;51.67;;;19.60;;
59476;SDS011;73078;49.762;6.594;2024-02-28T04:29:00;53.65;;;21.35;;
59476;SDS011;73078;49.762;6.594;2024-02-28T04:31:29;60.67;;;21.23;;
59476;SDS011;73078;49.762;6.594;2024-02-28T04:33:55;58.63;;;21.38;;
59476;SDS011;73078;49.762;6.594;2024-02-28T04:36:22;55.90;;;20.67;;
59476;SDS011;73078;49.762;6.594;2024-02-28T04:38:47;55.33;;;20.77;;
59476;SDS011;73078;49.762;6.594;2024-02-28T04:41:13;62.15;;;22.38;;
59476;SDS011;73078;49.762;6.594;2024-02-28T04:43:39;53.58;;;21.73;;
59476;SDS011;73078;49.762;6.594;2024-02-28T04:46:05;52.42;;;20.42;;
59476;SDS011;73078;49.762;6.594;2024-02-28T04:48:31;58.45;;;21.83;;
59476;SDS011;73078;49.762;6.594;2024-02-28T04:50:59;64.45;;;23.08;;
59476;SDS011;73078;49.762;6.594;2024-02-28T04:53:27;57.67;;;21.48;;
59476;SDS011;73078;49.762;6.594;2024-02-28T04:55:53;56.95;;;21.90;;
59476;SDS011;73078;49.762;6.594;2024-02-28T04:58:19;60.40;;;21.88;;
59476;SDS011;73078;49.762;6.594;2024-02-28T05:00:45;53.70;;;20.42;;
59476;SDS011;73078;49.762;6.594;2024-02-28T05:03:11;62.35;;;21.15;;
59476;SDS011;73078;49.762;6.594;2024-02-28T05:05:37;53.28;;;20.10;;
59476;SDS011;73078;49.762;6.594;2024-02-28T05:08:04;51.85;;;22.15;;
59476;SDS011;73078;49.762;6.594;2024-02-28T05:10:30;62.90;;;22.38;;
59476;SDS011;73078;49.762;6.594;2024-02-28T05:12:56;59.38;;;23.00;;
59476;SDS011;73078;49.762;6.594;2024-02-28T05:15:22;64.75;;;24.40;;
59476;SDS011;73078;49.762;6.594;2024-02-28T05:17:50;52.20;;;21.63;;
59476;SDS011;73078;49.762;6.594;2024-02-28T05:20:17;54.78;;;21.58;;
59476;SDS011;73078;49.762;6.594;2024-02-28T05:22:43;59.08;;;21.70;;
59476;SDS011;73078;49.762;6.594;2024-02-28T05:25:09;54.90;;;21.02;;
59476;SDS011;73078;49.762;6.594;2024-02-28T05:27:35;56.00;;;22.08;;
59476;SDS011;73078;49.762;6.594;2024-02-28T05:30:01;61.45;;;23.05;;
59476;SDS011;73078;49.762;6.594;2024-02-28T05:32:30;53.25;;;22.33;;
59476;SDS011;73078;49.762;6.594;2024-02-28T05:34:56;56.42;;;22.55;;
59476;SDS011;73078;49.762;6.594;2024-02-28T05:37:22;54.72;;;22.48;;
59476;SDS011;73078;49.762;6.594;2024-02-28T05:39:48;53.85;;;21.63;;
59476;SDS011;73078;49.762;6.594;2024-02-28T05:42:14;54.70;;;21.15;;
59476;SDS011;73078;49.762;6.594;2024-02-28T05:44:46;49.80;;;21.88;;
59476;SDS011;73078;49.762;6.594;2024-02-28T05:47:12;52.17;;;21.42;;
59476;SDS011;73078;49.762;6.594;2024-02-28T05:49:38;56.40;;;22.63;;
59476;SDS011;73078;49.762;6.594;2024-02-28T05:52:05;53.70;;;20.75;;
59476;SDS011;73078;49.762;6.594;2024-02-28T05:54:31;50.78;;;19.95;;
59476;SDS011;73078;49.762;6.594;2024-02-28T05:56:59;47.33;;;20.20;;
59476;SDS011;73078;49.762;6.594;2024-02-28T05:59:25;59.95;;;21.23;;
59476;SDS011;73078;49.762;6.594;2024-02-28T06:01:51;50.20;;;21.48;;
59476;SDS011;73078;49.762;6.594;2024-02-28T06:04:17;54.53;;;20.08;;
59476;SDS011;73078;49.762;6.594;2024-02-28T06:06:43;46.95;;;20.27;;
59476;SDS011;73078;49.762;6.594;2024-02-28T06:09:10;49.70;;;21.38;;
59476;SDS011;73078;49.762;6.594;2024-02-28T06:11:36;48.35;;;19.85;;
59476;SDS011;73078;49.762;6.594;2024-02-28T06:14:02;50.90;;;18.67;;
59476;SDS011;73078;49.762;6.594;2024-02-28T06:16:29;62.80;;;21.27;;
59476;SDS011;73078;49.762;6.594;2024-02-28T06:18:55;52.80;;;22.98;;
59476;SDS011;73078;49.762;6.594;2024-02-28T06:21:22;61.05;;;22.75;;
59476;SDS011;73078;49.762;6.594;2024-02-28T06:23:48;56.75;;;21.70;;
59476;SDS011;73078;49.762;6.594;2024-02-28T06:26:14;58.92;;;21.98;;
59476;SDS011;73078;49.762;6.594;2024-02-28T06:28:42;60.47;;;23.58;;
59476;SDS011;73078;49.762;6.594;2024-02-28T06:31:16;55.10;;;22.45;;
59476;SDS011;73078;49.762;6.594;2024-02-28T06:33:43;55.67;;;20.42;;
59476;SDS011;73078;49.762;6.594;2024-02-28T06:36:09;59.00;;;23.63;;
59476;SDS011;73078;49.762;6.594;2024-02-28T06:38:35;52.55;;;21.17;;
59476;SDS011;73078;49.762;6.594;2024-02-28T06:41:04;56.42;;;20.88;;
59476;SDS011;73078;49.762;6.594;2024-02-28T06:43:32;45.22;;;18.08;;
59476;SDS011;73078;49.762;6.594;2024-02-28T06:46:00;51.40;;;20.20;;
59476;SDS011;73078;49.762;6.594;2024-02-28T06:48:27;51.03;;;19.27;;
59476;SDS011;73078;49.762;6.594;2024-02-28T06:50:52;78.28;;;20.67;;
59476;SDS011;73078;49.762;6.594;2024-02-28T06:53:20;54.38;;;20.67;;
59476;SDS011;73078;49.762;6.594;2024-02-28T06:55:46;62.15;;;22.38;;
59476;SDS011;73078;49.762;6.594;2024-02-28T06:58:13;54.15;;;20.50;;
59476;SDS011;73078;49.762;6.594;2024-02-28T07:00:39;41.30;;;16.30;;
59476;SDS011;73078;49.762;6.594;2024-02-28T07:03:05;54.20;;;20.15;;
59476;SDS011;73078;49.762;6.594;2024-02-28T07:05:32;62.47;;;20.05;;
59476;SDS011;73078;49.762;6.594;2024-02-28T07:07:59;54.88;;;20.40;;
59476;SDS011;73078;49.762;6.594;2024-02-28T07:10:24;67.45;;;20.08;;
59476;SDS011;73078;49.762;6.594;2024-02-28T07:12:50;48.83;;;19.42;;
59476;SDS011;73078;49.762;6.594;2024-02-28T07:15:16;49.50;;;18.88;;
59476;SDS011;73078;49.762;6.594;2024-02-28T07:17:45;52.35;;;19.90;;
59476;SDS011;73078;49.762;6.594;2024-02-28T07:20:11;51.90;;;18.95;;
59476;SDS011;73078;49.762;6.594;2024-02-28T07:22:37;53.85;;;17.85;;
59476;SDS011;73078;49.762;6.594;2024-02-28T07:25:04;56.20;;;20.23;;
59476;SDS011;73078;49.762;6.594;2024-02-28T07:27:30;60.85;;;19.85;;
59476;SDS011;73078;49.762;6.594;2024-02-28T07:29:56;50.30;;;19.98;;
59476;SDS011;73078;49.762;6.594;2024-02-28T07:32:22;66.15;;;21.35;;
59476;SDS011;73078;49.762;6.594;2024-02-28T07:34:48;58.55;;;21.08;;
59476;SDS011;73078;49.762;6.594;2024-02-28T07:37:14;49.13;;;20.17;;
59476;SDS011;73078;49.762;6.594;2024-02-28T07:39:40;54.90;;;19.75;;
59476;SDS011;73078;49.762;6.594;2024-02-28T07:42:06;57.58;;;22.95;;
59476;SDS011;73078;49.762;6.594;2024-02-28T07:44:32;75.22;;;23.02;;
59476;SDS011;73078;49.762;6.594;2024-02-28T07:46:58;61.38;;;25.83;;
59476;SDS011;73078;49.762;6.594;2024-02-28T07:49:24;58.50;;;23.73;;
59476;SDS011;73078;49.762;6.594;2024-02-28T07:51:51;54.13;;;23.10;;
59476;SDS011;73078;49.762;6.594;2024-02-28T07:54:17;51.83;;;21.65;;
59476;SDS011;73078;49.762;6.594;2024-02-28T07:56:43;63.92;;;24.77;;
59476;SDS011;73078;49.762;6.594;2024-02-28T07:59:09;58.10;;;21.23;;
59476;SDS011;73078;49.762;6.594;2024-02-28T08:01:35;54.30;;;20.58;;
59476;SDS011;73078;49.762;6.594;2024-02-28T08:04:04;55.83;;;19.60;;
59476;SDS011;73078;49.762;6.594;2024-02-28T08:06:30;56.17;;;23.85;;
59476;SDS011;73078;49.762;6.594;2024-02-28T08:08:58;54.13;;;21.38;;
59476;SDS011;73078;49.762;6.594;2024-02-28T08:11:24;48.85;;;20.83;;
59476;SDS011;73078;49.762;6.594;2024-02-28T08:13:50;57.78;;;21.50;;
59476;SDS011;73078;49.762;6.594;2024-02-28T08:16:17;53.47;;;20.58;;
59476;SDS011;73078;49.762;6.594;2024-02-28T08:18:43;60.45;;;22.23;;
59476;SDS011;73078;49.762;6.594;2024-02-28T08:21:09;53.70;;;20.48;;
59476;SDS011;73078;49.762;6.594;2024-02-28T08:23:35;64.60;;;21.17;;
59476;SDS011;73078;49.762;6.594;2024-02-28T08:26:01;64.20;;;21.88;;
59476;SDS011;73078;49.762;6.594;2024-02-28T08:28:28;49.22;;;21.13;;
59476;SDS011;73078;49.762;6.594;2024-02-28T08:30:54;51.75;;;19.30;;
59476;SDS011;73078;49.762;6.594;2024-02-28T08:33:20;55.22;;;23.83;;
59476;SDS011;73078;49.762;6.594;2024-02-28T08:35:46;66.15;;;21.05;;
59476;SDS011;73078;49.762;6.594;2024-02-28T08:38:15;46.15;;;19.02;;
59476;SDS011;73078;49.762;6.594;2024-02-28T08:40:41;52.53;;;19.48;;
59476;SDS011;73078;49.762;6.594;2024-02-28T08:43:06;42.08;;;18.35;;
59476;SDS011;73078;49.762;6.594;2024-02-28T08:45:32;44.13;;;19.48;;
59476;SDS011;73078;49.762;6.594;2024-02-28T08:47:59;48.08;;;22.30;;
59476;SDS011;73078;49.762;6.594;2024-02-28T08:50:26;56.60;;;19.55;;
59476;SDS011;73078;49.762;6.594;2024-02-28T08:52:53;55.35;;;21.00;;
59476;SDS011;73078;49.762;6.594;2024-02-28T08:55:19;56.10;;;26.88;;
59476;SDS011;73078;49.762;6.594;2024-02-28T08:57:46;49.50;;;21.33;;
59476;SDS011;73078;49.762;6.594;2024-02-28T09:00:13;46.65;;;19.85;;
59476;SDS011;73078;49.762;6.594;2024-02-28T09:02:40;43.15;;;18.27;;
59476;SDS011;73078;49.762;6.594;2024-02-28T09:05:06;48.28;;;18.83;;
59476;SDS011;73078;49.762;6.594;2024-02-28T09:07:34;43.92;;;18.98;;
59476;SDS011;73078;49.762;6.594;2024-02-28T09:10:03;38.72;;;18.08;;
59476;SDS011;73078;49.762;6.594;2024-02-28T09:12:30;40.40;;;17.55;;
59476;SDS011;73078;49.762;6.594;2024-02-28T09:14:56;41.58;;;17.60;;
59476;SDS011;73078;49.762;6.594;2024-02-28T09:17:23;44.33;;;19.90;;
59476;SDS011;73078;49.762;6.594;2024-02-28T09:19:49;41.45;;;17.73;;
59476;SDS011;73078;49.762;6.594;2024-02-28T09:22:16;42.42;;;19.38;;
59476;SDS011;73078;49.762;6.594;2024-02-28T09:24:42;39.80;;;19.23;;
59476;SDS011;73078;49.762;6.594;2024-02-28T09:27:08;45.60;;;19.08;;
59476;SDS011;73078;49.762;6.594;2024-02-28T09:29:34;44.60;;;20.27;;
59476;SDS011;73078;49.762;6.594;2024-02-28T09:32:00;37.75;;;17.35;;
59476;SDS011;73078;49.762;6.594;2024-02-28T09:34:27;42.22;;;17.48;;
59476;SDS011;73078;49.762;6.594;2024-02-28T09:36:53;39.92;;;18.05;;
59476;SDS011;73078;49.762;6.594;2024-02-28T09:39:19;36.50;;;16.55;;
59476;SDS011;73078;49.762;6.594;2024-02-28T09:41:47;37.35;;;17.08;;
59476;SDS011;73078;49.762;6.594;2024-02-28T09:44:17;41.05;;;17.75;;
59476;SDS011;73078;49.762;6.594;2024-02-28T09:46:43;41.03;;;18.55;;
59476;SDS011;73078;49.762;6.594;2024-02-28T09:49:09;39.80;;;16.83;;
59476;SDS011;73078;49.762;6.594;2024-02-28T09:51:36;39.03;;;17.05;;
59476;SDS011;73078;49.762;6.594;2024-02-28T09:54:05;34.05;;;15.23;;
59476;SDS011;73078;49.762;6.594;2024-02-28T09:56:31;40.47;;;18.42;;
59476;SDS011;73078;49.762;6.594;2024-02-28T09:58:58;36.58;;;16.88;;
59476;SDS011;73078;49.762;6.594;2024-02-28T10:01:27;37.83;;;16.98;;
59476;SDS011;73078;49.762;6.594;2024-02-28T10:03:54;38.97;;;17.50;;
59476;SDS011;73078;49.762;6.594;2024-02-28T10:06:21;36.20;;;16.35;;
59476;SDS011;73078;49.762;6.594;2024-02-28T10:08:48;34.35;;;17.20;;
59476;SDS011;73078;49.762;6.594;2024-02-28T10:11:20;35.40;;;16.30;;
59476;SDS011;73078;49.762;6.594;2024-02-28T10:13:49;32.58;;;15.60;;
59476;SDS011;73078;49.762;6.594;2024-02-28T10:16:16;33.95;;;14.93;;
59476;SDS011;73078;49.762;6.594;2024-02-28T10:18:45;34.50;;;15.90;;
59476;SDS011;73078;49.762;6.594;2024-02-28T10:21:11;31.25;;;13.25;;
59476;SDS011;73078;49.762;6.594;2024-02-28T10:23:41;30.77;;;14.10;;
59476;SDS011;73078;49.762;6.594;2024-02-28T10:26:10;30.63;;;14.02;;
59476;SDS011;73078;49.762;6.594;2024-02-28T10:28:40;34.80;;;14.20;;
59476;SDS011;73078;49.762;6.594;2024-02-28T10:33:32;28.75;;;13.13;;
59476;SDS011;73078;49.762;6.594;2024-02-28T10:36:00;25.50;;;11.55;;
59476;SDS011;73078;49.762;6.594;2024-02-28T10:38:27;25.63;;;11.85;;
59476;SDS011;73078;49.762;6.594;2024-02-28T10:40:53;25.77;;;12.55;;
59476;SDS011;73078;49.762;6.594;2024-02-28T10:43:19;27.38;;;12.70;;
59476;SDS011;73078;49.762;6.594;2024-02-28T10:45:46;24.15;;;12.48;;
59476;SDS011;73078;49.762;6.594;2024-02-28T10:48:14;27.33;;;13.05;;
59476;SDS011;73078;49.762;6.594;2024-02-28T10:50:45;26.67;;;12.93;;
59476;SDS011;73078;49.762;6.594;2024-02-28T10:53:15;30.48;;;14.68;;
59476;SDS011;73078;49.762;6.594;2024-02-28T10:55:41;28.40;;;13.52;;
59476;SDS011;73078;49.762;6.594;2024-02-28T10:58:09;23.42;;;11.27;;
59476;SDS011;73078;49.762;6.594;2024-02-28T11:00:39;28.52;;;12.90;;
59476;SDS011;73078;49.762;6.594;2024-02-28T11:03:06;28.73;;;13.55;;
59476;SDS011;73078;49.762;6.594;2024-02-28T11:05:39;26.15;;;12.45;;
59476;SDS011;73078;49.762;6.594;2024-02-28T11:08:09;26.05;;;12.38;;
59476;SDS011;73078;49.762;6.594;2024-02-28T11:10:39;28.35;;;13.52;;
59476;SDS011;73078;49.762;6.594;2024-02-28T11:13:06;26.73;;;14.07;;
59476;SDS011;73078;49.762;6.594;2024-02-28T11:15:35;27.20;;;13.80;;
59476;SDS011;73078;49.762;6.594;2024-02-28T11:18:07;29.98;;;13.73;;
59476;SDS011;73078;49.762;6.594;2024-02-28T11:20:37;27.98;;;13.80;;
59476;SDS011;73078;49.762;6.594;2024-02-28T11:23:05;27.60;;;13.43;;
59476;SDS011;73078;49.762;6.594;2024-02-28T11:25:32;28.58;;;13.70;;
59476;SDS011;73078;49.762;6.594;2024-02-28T11:27:58;29.42;;;15.27;;
59476;SDS011;73078;49.762;6.594;2024-02-28T11:30:24;24.42;;;13.23;;
59476;SDS011;73078;49.762;6.594;2024-02-28T11:32:54;31.23;;;13.73;;
59476;SDS011;73078;49.762;6.594;2024-02-28T11:35:20;26.83;;;13.20;;
59476;SDS011;73078;49.762;6.594;2024-02-28T11:37:47;24.63;;;12.57;;
59476;SDS011;73078;49.762;6.594;2024-02-28T11:40:13;29.63;;;15.23;;
59476;SDS011;73078;49.762;6.594;2024-02-28T11:42:40;29.77;;;14.57;;
59476;SDS011;73078;49.762;6.594;2024-02-28T11:45:09;31.60;;;14.45;;
59476;SDS011;73078;49.762;6.594;2024-02-28T11:47:35;29.85;;;13.57;;
59476;SDS011;73078;49.762;6.594;2024-02-28T11:50:01;31.00;;;14.70;;
59476;SDS011;73078;49.762;6.594;2024-02-28T11:52:30;26.75;;;14.00;;
59476;SDS011;73078;49.762;6.594;2024-02-28T11:54:56;29.60;;;14.82;;
59476;SDS011;73078;49.762;6.594;2024-02-28T11:57:22;33.25;;;15.43;;
59476;SDS011;73078;49.762;6.594;2024-02-28T11:59:48;28.92;;;14.45;;
59476;SDS011;73078;49.762;6.594;2024-02-28T12:02:14;27.05;;;13.52;;
59476;SDS011;73078;49.762;6.594;2024-02-28T12:04:44;28.25;;;13.27;;
59476;SDS011;73078;49.762;6.594;2024-02-28T12:07:11;26.00;;;13.32;;
59476;SDS011;73078;49.762;6.594;2024-02-28T12:09:37;25.10;;;12.48;;
59476;SDS011;73078;49.762;6.594;2024-02-28T12:12:06;27.25;;;13.73;;
59476;SDS011;73078;49.762;6.594;2024-02-28T12:14:36;27.15;;;13.68;;
59476;SDS011;73078;49.762;6.594;2024-02-28T12:17:03;27.70;;;15.18;;
59476;SDS011;73078;49.762;6.594;2024-02-28T12:19:29;26.77;;;14.15;;
59476;SDS011;73078;49.762;6.594;2024-02-28T12:21:56;26.00;;;13.55;;
59476;SDS011;73078;49.762;6.594;2024-02-28T12:24:23;24.95;;;12.88;;
59476;SDS011;73078;49.762;6.594;2024-02-28T12:26:49;29.63;;;15.25;;
59476;SDS011;73078;49.762;6.594;2024-02-28T12:29:15;27.38;;;13.82;;
59476;SDS011;73078;49.762;6.594;2024-02-28T12:31:41;27.48;;;14.63;;
59476;SDS011;73078;49.762;6.594;2024-02-28T12:34:07;26.98;;;14.20;;
59476;SDS011;73078;49.762;6.594;2024-02-28T12:36:33;26.27;;;13.15;;
59476;SDS011;73078;49.762;6.594;2024-02-28T12:38:59;27.48;;;14.18;;
59476;SDS011;73078;49.762;6.594;2024-02-28T12:41:28;23.30;;;13.35;;
59476;SDS011;73078;49.762;6.594;2024-02-28T12:43:54;29.88;;;14.35;;
59476;SDS011;73078;49.762;6.594;2024-02-28T12:46:20;25.73;;;13.80;;
59476;SDS011;73078;49.762;6.594;2024-02-28T12:48:46;26.50;;;13.98;;
59476;SDS011;73078;49.762;6.594;2024-02-28T12:53:57;26.90;;;13.27;;
59476;SDS011;73078;49.762;6.594;2024-02-28T12:56:22;26.80;;;13.82;;
59476;SDS011;73078;49.762;6.594;2024-02-28T12:58:48;27.77;;;14.68;;
59476;SDS011;73078;49.762;6.594;2024-02-28T13:01:14;27.85;;;14.25;;
59476;SDS011;73078;49.762;6.594;2024-02-28T13:03:40;27.77;;;14.27;;
59476;SDS011;73078;49.762;6.594;2024-02-28T13:06:06;29.35;;;15.55;;
59476;SDS011;73078;49.762;6.594;2024-02-28T13:08:32;29.15;;;14.27;;
59476;SDS011;73078;49.762;6.594;2024-02-28T13:10:58;32.05;;;15.52;;
59476;SDS011;73078;49.762;6.594;2024-02-28T13:13:24;27.98;;;14.05;;
59476;SDS011;73078;49.762;6.594;2024-02-28T13:15:50;28.40;;;14.95;;
59476;SDS011;73078;49.762;6.594;2024-02-28T13:18:16;29.15;;;14.75;;
59476;SDS011;73078;49.762;6.594;2024-02-28T13:20:42;27.25;;;14.25;;
59476;SDS011;73078;49.762;6.594;2024-02-28T13:23:08;28.42;;;15.13;;
59476;SDS011;73078;49.762;6.594;2024-02-28T13:25:34;28.83;;;14.18;;
59476;SDS011;73078;49.762;6.594;2024-02-28T13:28:01;27.02;;;14.43;;
59476;SDS011;73078;49.762;6.594;2024-02-28T13:30:26;29.70;;;15.05;;
59476;SDS011;73078;49.762;6.594;2024-02-28T13:32:52;31.00;;;14.68;;
59476;SDS011;73078;49.762;6.594;2024-02-28T13:35:18;28.58;;;15.50;;
59476;SDS011;73078;49.762;6.594;2024-02-28T13:37:44;28.63;;;14.48;;
59476;SDS011;73078;49.762;6.594;2024-02-28T13:40:10;29.98;;;14.88;;
59476;SDS011;73078;49.762;6.594;2024-02-28T13:42:36;27.98;;;14.07;;
59476;SDS011;73078;49.762;6.594;2024-02-28T13:45:03;28.73;;;14.55;;
59476;SDS011;73078;49.762;6.594;2024-02-28T13:47:32;25.55;;;14.30;;
59476;SDS011;73078;49.762;6.594;2024-02-28T13:49:58;30.08;;;15.23;;
59476;SDS011;73078;49.762;6.594;2024-02-28T13:52:24;26.70;;;13.38;;
59476;SDS011;73078;49.762;6.594;2024-02-28T13:54:50;24.30;;;13.38;;
59476;SDS011;73078;49.762;6.594;2024-02-28T13:57:17;27.80;;;14.27;;
59476;SDS011;73078;49.762;6.594;2024-02-28T13:59:43;27.23;;;13.57;;
59476;SDS011;73078;49.762;6.594;2024-02-28T14:02:13;27.85;;;13.30;;
59476;SDS011;73078;49.762;6.594;2024-02-28T14:04:39;27.83;;;14.52;;
59476;SDS011;73078;49.762;6.594;2024-02-28T14:07:07;25.75;;;14.02;;
59476;SDS011;73078;49.762;6.594;2024-02-28T14:09:33;26.23;;;13.50;;
59476;SDS011;73078;49.762;6.594;2024-02-28T14:11:59;29.60;;;14.43;;
59476;SDS011;73078;49.762;6.594;2024-02-28T14:14:25;28.88;;;13.60;;
59476;SDS011;73078;49.762;6.594;2024-02-28T14:16:52;29.67;;;13.55;;
59476;SDS011;73078;49.762;6.594;2024-02-28T14:19:18;26.35;;;12.88;;
59476;SDS011;73078;49.762;6.594;2024-02-28T14:21:44;27.63;;;14.15;;